sensor_id;sensor_type;location;lat;lon;timestamp;pressure;altitude;pressure_sealevel;temperature;humidity
45275;BME280;31019;43.780;25.948;2023-08-12T00:02:11;101537.44;;;15.66;100.00
45275;BME280;31019;43.780;25.948;2023-08-12T00:04:39;101533.13;;;15.90;100.00
45275;BME280;31019;43.780;25.948;2023-08-12T00:07:06;101540.34;;;15.07;100.00
45275;BME280;31019;43.780;25.948;2023-08-12T00:09:33;101549.03;;;15.60;100.00
45275;BME280;31019;43.780;25.948;2023-08-12T00:11:59;101542.88;;;16.02;100.00
45275;BME280;31019;43.780;25.948;2023-08-12T00:14:26;101543.25;;;16.24;100.00
45275;BME280;31019;43.780;25.948;2023-08-12T00:16:53;101543.78;;;16.15;100.00
45275;BME280;31019;43.780;25.948;2023-08-12T00:19:20;101539.91;;;15.92;100.00
45275;BME280;31019;43.780;25.948;2023-08-12T00:21:48;101537.69;;;16.08;100.00
45275;BME280;31019;43.780;25.948;2023-08-12T00:24:17;101540.28;;;15.96;100.00
45275;BME280;31019;43.780;25.948;2023-08-12T00:26:44;101542.41;;;15.62;100.00
45275;BME280;31019;43.780;25.948;2023-08-12T00:29:11;101541.13;;;15.71;100.00
45275;BME280;31019;43.780;25.948;2023-08-12T00:31:38;101549.66;;;15.55;100.00
45275;BME280;31019;43.780;25.948;2023-08-12T00:34:05;101554.44;;;15.53;100.00
45275;BME280;31019;43.780;25.948;2023-08-12T00:36:31;101557.75;;;15.80;100.00
45275;BME280;31019;43.780;25.948;2023-08-12T00:39:00;101552.41;;;14.85;100.00
45275;BME280;31019;43.780;25.948;2023-08-12T00:41:26;101559.28;;;15.69;100.00
45275;BME280;31019;43.780;25.948;2023-08-12T00:43:53;101542.25;;;15.00;100.00
45275;BME280;31019;43.780;25.948;2023-08-12T00:46:20;101550.34;;;15.50;100.00
45275;BME280;31019;43.780;25.948;2023-08-12T00:48:47;101538.00;;;15.74;100.00
45275;BME280;31019;43.780;25.948;2023-08-12T00:51:15;101540.75;;;15.61;100.00
45275;BME280;31019;43.780;25.948;2023-08-12T00:53:43;101547.81;;;15.30;100.00
45275;BME280;31019;43.780;25.948;2023-08-12T00:56:12;101539.13;;;15.35;100.00
45275;BME280;31019;43.780;25.948;2023-08-12T00:58:40;101551.41;;;15.43;100.00
45275;BME280;31019;43.780;25.948;2023-08-12T01:01:07;101545.66;;;15.14;100.00
45275;BME280;31019;43.780;25.948;2023-08-12T01:03:34;101543.25;;;15.31;100.00
45275;BME280;31019;43.780;25.948;2023-08-12T01:06:02;101537.81;;;15.44;100.00
45275;BME280;31019;43.780;25.948;2023-08-12T01:08:30;101542.03;;;15.58;100.00
45275;BME280;31019;43.780;25.948;2023-08-12T01:11:02;101538.59;;;15.51;100.00
45275;BME280;31019;43.780;25.948;2023-08-12T01:13:34;101536.72;;;15.52;100.00
45275;BME280;31019;43.780;25.948;2023-08-12T01:16:06;101533.66;;;15.48;100.00
45275;BME280;31019;43.780;25.948;2023-08-12T01:18:35;101539.19;;;15.28;100.00
45275;BME280;31019;43.780;25.948;2023-08-12T01:21:07;101531.47;;;15.14;100.00
45275;BME280;31019;43.780;25.948;2023-08-12T01:23:35;101544.56;;;15.22;100.00
45275;BME280;31019;43.780;25.948;2023-08-12T01:26:03;101547.34;;;15.40;100.00
45275;BME280;31019;43.780;25.948;2023-08-12T01:28:30;101549.69;;;14.98;100.00
45275;BME280;31019;43.780;25.948;2023-08-12T01:31:06;101542.00;;;15.08;100.00
45275;BME280;31019;43.780;25.948;2023-08-12T01:33:40;101549.66;;;15.30;100.00
45275;BME280;31019;43.780;25.948;2023-08-12T01:36:11;101552.38;;;15.23;100.00
45275;BME280;31019;43.780;25.948;2023-08-12T01:38:41;101547.84;;;15.24;100.00
45275;BME280;31019;43.780;25.948;2023-08-12T01:41:10;101544.53;;;15.28;100.00
45275;BME280;31019;43.780;25.948;2023-08-12T01:43:38;101550.72;;;15.29;100.00
45275;BME280;31019;43.780;25.948;2023-08-12T01:46:05;101564.69;;;14.99;100.00
45275;BME280;31019;43.780;25.948;2023-08-12T01:48:32;101554.13;;;15.11;100.00
45275;BME280;31019;43.780;25.948;2023-08-12T01:50:59;101565.34;;;14.88;100.00
45275;BME280;31019;43.780;25.948;2023-08-12T01:53:26;101563.72;;;14.87;100.00
45275;BME280;31019;43.780;25.948;2023-08-12T01:55:54;101565.25;;;15.08;100.00
45275;BME280;31019;43.780;25.948;2023-08-12T01:58:21;101567.88;;;14.05;100.00
45275;BME280;31019;43.780;25.948;2023-08-12T02:00:47;101570.66;;;14.56;100.00
45275;BME280;31019;43.780;25.948;2023-08-12T02:03:14;101575.13;;;14.69;100.00
45275;BME280;31019;43.780;25.948;2023-08-12T02:05:41;101576.88;;;14.88;100.00
45275;BME280;31019;43.780;25.948;2023-08-12T02:08:09;101575.56;;;14.59;100.00
45275;BME280;31019;43.780;25.948;2023-08-12T02:10:35;101585.50;;;14.91;100.00
45275;BME280;31019;43.780;25.948;2023-08-12T02:13:04;101582.19;;;14.95;100.00
45275;BME280;31019;43.780;25.948;2023-08-12T02:15:31;101592.78;;;14.70;100.00
45275;BME280;31019;43.780;25.948;2023-08-12T02:17:57;101590.13;;;14.70;100.00
45275;BME280;31019;43.780;25.948;2023-08-12T02:20:25;101598.25;;;14.88;100.00
45275;BME280;31019;43.780;25.948;2023-08-12T02:22:52;101590.19;;;14.43;100.00
45275;BME280;31019;43.780;25.948;2023-08-12T02:25:18;101592.16;;;14.75;100.00
45275;BME280;31019;43.780;25.948;2023-08-12T02:27:45;101600.06;;;15.01;100.00
45275;BME280;31019;43.780;25.948;2023-08-12T02:30:14;101595.59;;;14.88;100.00
45275;BME280;31019;43.780;25.948;2023-08-12T02:32:40;101592.19;;;14.68;100.00
45275;BME280;31019;43.780;25.948;2023-08-12T02:35:08;101601.84;;;14.69;100.00
45275;BME280;31019;43.780;25.948;2023-08-12T02:37:35;101600.06;;;14.36;100.00
45275;BME280;31019;43.780;25.948;2023-08-12T02:40:04;101603.53;;;14.57;100.00
45275;BME280;31019;43.780;25.948;2023-08-12T02:42:31;101599.41;;;14.68;100.00
45275;BME280;31019;43.780;25.948;2023-08-12T02:44:58;101591.13;;;14.76;100.00
45275;BME280;31019;43.780;25.948;2023-08-12T02:47:26;101599.25;;;14.36;100.00
45275;BME280;31019;43.780;25.948;2023-08-12T02:49:53;101603.00;;;14.15;100.00
45275;BME280;31019;43.780;25.948;2023-08-12T02:52:22;101599.72;;;14.19;100.00
45275;BME280;31019;43.780;25.948;2023-08-12T02:54:51;101608.91;;;14.30;100.00
45275;BME280;31019;43.780;25.948;2023-08-12T02:57:18;101601.91;;;14.36;100.00
45275;BME280;31019;43.780;25.948;2023-08-12T02:59:45;101609.69;;;14.51;100.00
45275;BME280;31019;43.780;25.948;2023-08-12T03:02:12;101602.78;;;14.23;100.00
45275;BME280;31019;43.780;25.948;2023-08-12T03:04:40;101608.09;;;14.30;100.00
45275;BME280;31019;43.780;25.948;2023-08-12T03:07:07;101603.22;;;14.13;100.00
45275;BME280;31019;43.780;25.948;2023-08-12T03:09:35;101602.91;;;14.48;100.00
45275;BME280;31019;43.780;25.948;2023-08-12T03:12:01;101604.97;;;14.46;100.00
45275;BME280;31019;43.780;25.948;2023-08-12T03:14:29;101608.69;;;14.52;100.00
45275;BME280;31019;43.780;25.948;2023-08-12T03:16:56;101606.41;;;14.55;100.00
45275;BME280;31019;43.780;25.948;2023-08-12T03:19:23;101607.88;;;14.38;100.00
45275;BME280;31019;43.780;25.948;2023-08-12T03:21:51;101617.72;;;14.51;100.00
45275;BME280;31019;43.780;25.948;2023-08-12T03:24:18;101619.16;;;14.40;100.00
45275;BME280;31019;43.780;25.948;2023-08-12T03:26:45;101615.47;;;14.48;100.00
45275;BME280;31019;43.780;25.948;2023-08-12T03:29:12;101607.06;;;14.37;100.00
45275;BME280;31019;43.780;25.948;2023-08-12T03:31:39;101611.56;;;14.37;100.00
45275;BME280;31019;43.780;25.948;2023-08-12T03:34:05;101607.97;;;14.76;100.00
45275;BME280;31019;43.780;25.948;2023-08-12T03:36:32;101616.16;;;14.16;100.00
45275;BME280;31019;43.780;25.948;2023-08-12T03:39:01;101620.19;;;14.52;100.00
45275;BME280;31019;43.780;25.948;2023-08-12T03:41:27;101614.22;;;14.63;100.00
45275;BME280;31019;43.780;25.948;2023-08-12T03:43:56;101618.28;;;14.73;100.00
45275;BME280;31019;43.780;25.948;2023-08-12T03:46:22;101619.19;;;14.47;100.00
45275;BME280;31019;43.780;25.948;2023-08-12T03:48:49;101623.47;;;14.61;100.00
45275;BME280;31019;43.780;25.948;2023-08-12T03:51:16;101622.38;;;14.82;100.00
45275;BME280;31019;43.780;25.948;2023-08-12T03:53:43;101630.94;;;14.97;100.00
45275;BME280;31019;43.780;25.948;2023-08-12T03:56:12;101632.06;;;14.70;100.00
45275;BME280;31019;43.780;25.948;2023-08-12T03:58:42;101629.19;;;15.23;100.00
45275;BME280;31019;43.780;25.948;2023-08-12T04:01:09;101629.56;;;15.26;100.00
45275;BME280;31019;43.780;25.948;2023-08-12T04:03:36;101631.09;;;15.47;100.00
45275;BME280;31019;43.780;25.948;2023-08-12T04:06:03;101639.72;;;15.49;100.00
45275;BME280;31019;43.780;25.948;2023-08-12T04:08:29;101641.41;;;15.75;100.00
45275;BME280;31019;43.780;25.948;2023-08-12T04:10:57;101651.31;;;15.43;100.00
45275;BME280;31019;43.780;25.948;2023-08-12T04:13:26;101643.06;;;15.76;100.00
45275;BME280;31019;43.780;25.948;2023-08-12T04:15:53;101645.19;;;15.93;100.00
45275;BME280;31019;43.780;25.948;2023-08-12T04:18:20;101645.63;;;15.90;100.00
45275;BME280;31019;43.780;25.948;2023-08-12T04:20:48;101637.94;;;15.75;100.00
45275;BME280;31019;43.780;25.948;2023-08-12T04:23:15;101645.94;;;16.00;100.00
45275;BME280;31019;43.780;25.948;2023-08-12T04:25:43;101649.06;;;16.22;100.00
45275;BME280;31019;43.780;25.948;2023-08-12T04:28:10;101654.06;;;16.37;100.00
45275;BME280;31019;43.780;25.948;2023-08-12T04:30:41;101651.53;;;16.23;100.00
45275;BME280;31019;43.780;25.948;2023-08-12T04:33:10;101653.25;;;16.36;100.00
45275;BME280;31019;43.780;25.948;2023-08-12T04:35:37;101654.22;;;16.42;100.00
45275;BME280;31019;43.780;25.948;2023-08-12T04:38:05;101652.53;;;16.47;100.00
45275;BME280;31019;43.780;25.948;2023-08-12T04:40:32;101655.00;;;16.67;100.00
45275;BME280;31019;43.780;25.948;2023-08-12T04:42:59;101643.66;;;16.65;100.00
45275;BME280;31019;43.780;25.948;2023-08-12T04:45:27;101653.22;;;16.98;100.00
45275;BME280;31019;43.780;25.948;2023-08-12T04:47:56;101661.34;;;17.10;100.00
45275;BME280;31019;43.780;25.948;2023-08-12T04:50:25;101659.31;;;17.05;100.00
45275;BME280;31019;43.780;25.948;2023-08-12T04:52:51;101657.91;;;17.03;100.00
45275;BME280;31019;43.780;25.948;2023-08-12T04:55:18;101655.94;;;17.28;100.00
45275;BME280;31019;43.780;25.948;2023-08-12T04:57:45;101657.69;;;17.34;100.00
45275;BME280;31019;43.780;25.948;2023-08-12T05:00:12;101662.16;;;17.40;100.00
45275;BME280;31019;43.780;25.948;2023-08-12T05:02:40;101651.78;;;17.44;100.00
45275;BME280;31019;43.780;25.948;2023-08-12T05:05:08;101659.91;;;17.68;100.00
45275;BME280;31019;43.780;25.948;2023-08-12T05:07:35;101655.53;;;17.97;100.00
45275;BME280;31019;43.780;25.948;2023-08-12T05:10:02;101664.72;;;17.77;100.00
45275;BME280;31019;43.780;25.948;2023-08-12T05:12:29;101657.63;;;17.95;100.00
45275;BME280;31019;43.780;25.948;2023-08-12T05:14:56;101659.38;;;17.89;100.00
45275;BME280;31019;43.780;25.948;2023-08-12T05:17:23;101658.34;;;18.14;100.00
45275;BME280;31019;43.780;25.948;2023-08-12T05:19:50;101665.69;;;18.30;100.00
45275;BME280;31019;43.780;25.948;2023-08-12T05:22:18;101656.47;;;18.26;100.00
45275;BME280;31019;43.780;25.948;2023-08-12T05:24:46;101660.16;;;18.72;100.00
45275;BME280;31019;43.780;25.948;2023-08-12T05:27:13;101653.28;;;18.64;100.00
45275;BME280;31019;43.780;25.948;2023-08-12T05:29:40;101658.50;;;18.94;100.00
45275;BME280;31019;43.780;25.948;2023-08-12T05:32:07;101658.06;;;19.14;100.00
45275;BME280;31019;43.780;25.948;2023-08-12T05:34:34;101659.97;;;19.14;100.00
45275;BME280;31019;43.780;25.948;2023-08-12T05:37:00;101659.84;;;19.09;100.00
45275;BME280;31019;43.780;25.948;2023-08-12T05:39:29;101652.81;;;19.36;100.00
45275;BME280;31019;43.780;25.948;2023-08-12T05:41:56;101655.66;;;19.58;100.00
45275;BME280;31019;43.780;25.948;2023-08-12T05:44:23;101642.31;;;19.97;100.00
45275;BME280;31019;43.780;25.948;2023-08-12T05:46:49;101637.06;;;19.90;100.00
45275;BME280;31019;43.780;25.948;2023-08-12T05:49:16;101646.81;;;19.92;100.00
45275;BME280;31019;43.780;25.948;2023-08-12T05:51:43;101640.84;;;20.06;100.00
45275;BME280;31019;43.780;25.948;2023-08-12T05:54:10;101635.56;;;20.17;100.00
45275;BME280;31019;43.780;25.948;2023-08-12T05:56:38;101627.88;;;20.25;100.00
45275;BME280;31019;43.780;25.948;2023-08-12T05:59:05;101630.19;;;20.55;100.00
45275;BME280;31019;43.780;25.948;2023-08-12T06:01:32;101628.44;;;20.66;100.00
45275;BME280;31019;43.780;25.948;2023-08-12T06:03:58;101634.34;;;20.85;100.00
45275;BME280;31019;43.780;25.948;2023-08-12T06:06:25;101628.38;;;20.61;100.00
45275;BME280;31019;43.780;25.948;2023-08-12T06:08:52;101632.56;;;20.96;100.00
45275;BME280;31019;43.780;25.948;2023-08-12T06:11:19;101635.03;;;21.24;100.00
45275;BME280;31019;43.780;25.948;2023-08-12T06:13:47;101625.03;;;21.25;100.00
45275;BME280;31019;43.780;25.948;2023-08-12T06:16:14;101642.19;;;22.00;100.00
45275;BME280;31019;43.780;25.948;2023-08-12T06:18:41;101629.66;;;22.21;100.00
45275;BME280;31019;43.780;25.948;2023-08-12T06:21:08;101624.25;;;22.26;100.00
45275;BME280;31019;43.780;25.948;2023-08-12T06:23:35;101631.72;;;22.61;100.00
45275;BME280;31019;43.780;25.948;2023-08-12T06:26:01;101627.88;;;23.36;100.00
45275;BME280;31019;43.780;25.948;2023-08-12T06:28:28;101631.41;;;23.26;100.00
45275;BME280;31019;43.780;25.948;2023-08-12T06:30:57;101625.41;;;23.03;100.00
45275;BME280;31019;43.780;25.948;2023-08-12T06:33:24;101621.59;;;22.94;100.00
45275;BME280;31019;43.780;25.948;2023-08-12T06:35:51;101622.22;;;23.78;100.00
45275;BME280;31019;43.780;25.948;2023-08-12T06:38:18;101621.00;;;24.40;100.00
45275;BME280;31019;43.780;25.948;2023-08-12T06:40:47;101620.00;;;24.21;100.00
45275;BME280;31019;43.780;25.948;2023-08-12T06:43:14;101619.72;;;24.17;100.00
45275;BME280;31019;43.780;25.948;2023-08-12T06:45:40;101625.41;;;24.21;100.00
45275;BME280;31019;43.780;25.948;2023-08-12T06:48:09;101633.84;;;24.04;100.00
45275;BME280;31019;43.780;25.948;2023-08-12T06:50:36;101626.03;;;23.82;100.00
45275;BME280;31019;43.780;25.948;2023-08-12T06:53:03;101637.13;;;23.65;100.00
45275;BME280;31019;43.780;25.948;2023-08-12T06:55:30;101624.03;;;24.34;100.00
45275;BME280;31019;43.780;25.948;2023-08-12T06:57:56;101624.56;;;24.26;100.00
45275;BME280;31019;43.780;25.948;2023-08-12T07:00:23;101636.03;;;24.12;100.00
45275;BME280;31019;43.780;25.948;2023-08-12T07:02:50;101636.59;;;23.84;100.00
45275;BME280;31019;43.780;25.948;2023-08-12T07:05:18;101632.22;;;24.08;100.00
45275;BME280;31019;43.780;25.948;2023-08-12T07:07:45;101624.59;;;24.20;100.00
45275;BME280;31019;43.780;25.948;2023-08-12T07:10:12;101618.59;;;24.29;100.00
45275;BME280;31019;43.780;25.948;2023-08-12T07:12:39;101622.56;;;24.72;100.00
45275;BME280;31019;43.780;25.948;2023-08-12T07:15:07;101620.91;;;24.66;100.00
45275;BME280;31019;43.780;25.948;2023-08-12T07:17:36;101602.44;;;24.68;100.00
45275;BME280;31019;43.780;25.948;2023-08-12T07:20:03;101610.16;;;24.40;100.00
45275;BME280;31019;43.780;25.948;2023-08-12T07:22:32;101606.69;;;24.89;100.00
45275;BME280;31019;43.780;25.948;2023-08-12T07:24:59;101616.28;;;24.72;100.00
45275;BME280;31019;43.780;25.948;2023-08-12T07:27:26;101604.69;;;24.56;100.00
45275;BME280;31019;43.780;25.948;2023-08-12T07:29:53;101610.66;;;25.02;100.00
45275;BME280;31019;43.780;25.948;2023-08-12T07:32:21;101609.63;;;25.43;100.00
45275;BME280;31019;43.780;25.948;2023-08-12T07:34:48;101603.38;;;25.71;100.00
45275;BME280;31019;43.780;25.948;2023-08-12T07:37:17;101609.41;;;25.34;100.00
45275;BME280;31019;43.780;25.948;2023-08-12T07:39:45;101609.72;;;25.27;100.00
45275;BME280;31019;43.780;25.948;2023-08-12T07:42:12;101613.94;;;25.44;100.00
45275;BME280;31019;43.780;25.948;2023-08-12T07:44:39;101606.72;;;25.29;100.00
45275;BME280;31019;43.780;25.948;2023-08-12T07:47:06;101604.78;;;25.34;100.00
45275;BME280;31019;43.780;25.948;2023-08-12T07:49:32;101599.78;;;25.47;100.00
45275;BME280;31019;43.780;25.948;2023-08-12T07:52:00;101604.75;;;25.69;100.00
45275;BME280;31019;43.780;25.948;2023-08-12T07:54:27;101604.38;;;25.86;100.00
45275;BME280;31019;43.780;25.948;2023-08-12T07:56:56;101605.41;;;25.90;100.00
45275;BME280;31019;43.780;25.948;2023-08-12T07:59:23;101597.66;;;26.02;100.00
45275;BME280;31019;43.780;25.948;2023-08-12T08:01:51;101596.50;;;25.84;100.00
45275;BME280;31019;43.780;25.948;2023-08-12T08:04:18;101603.03;;;25.78;100.00
45275;BME280;31019;43.780;25.948;2023-08-12T08:06:45;101599.69;;;25.91;100.00
45275;BME280;31019;43.780;25.948;2023-08-12T08:09:11;101591.53;;;26.15;100.00
45275;BME280;31019;43.780;25.948;2023-08-12T08:11:38;101591.97;;;26.46;100.00
45275;BME280;31019;43.780;25.948;2023-08-12T08:14:06;101589.00;;;26.67;100.00
45275;BME280;31019;43.780;25.948;2023-08-12T08:16:33;101591.94;;;26.70;100.00
45275;BME280;31019;43.780;25.948;2023-08-12T08:19:00;101585.38;;;26.71;100.00
45275;BME280;31019;43.780;25.948;2023-08-12T08:21:27;101594.03;;;26.60;100.00
45275;BME280;31019;43.780;25.948;2023-08-12T08:23:55;101591.22;;;25.93;100.00
45275;BME280;31019;43.780;25.948;2023-08-12T08:26:21;101575.19;;;26.39;100.00
45275;BME280;31019;43.780;25.948;2023-08-12T08:28:48;101591.38;;;26.73;100.00
45275;BME280;31019;43.780;25.948;2023-08-12T08:31:16;101580.03;;;26.85;100.00
45275;BME280;31019;43.780;25.948;2023-08-12T08:33:43;101580.59;;;27.01;100.00
45275;BME280;31019;43.780;25.948;2023-08-12T08:36:10;101576.56;;;26.99;100.00
45275;BME280;31019;43.780;25.948;2023-08-12T08:38:37;101572.00;;;26.75;100.00
45275;BME280;31019;43.780;25.948;2023-08-12T08:41:05;101578.63;;;26.88;100.00
45275;BME280;31019;43.780;25.948;2023-08-12T08:43:34;101569.56;;;26.92;100.00
45275;BME280;31019;43.780;25.948;2023-08-12T08:46:02;101566.16;;;27.20;100.00
45275;BME280;31019;43.780;25.948;2023-08-12T08:48:32;101564.97;;;27.26;100.00
45275;BME280;31019;43.780;25.948;2023-08-12T08:51:00;101562.00;;;27.41;100.00
45275;BME280;31019;43.780;25.948;2023-08-12T08:53:28;101555.63;;;27.78;100.00
45275;BME280;31019;43.780;25.948;2023-08-12T08:55:55;101563.34;;;27.90;100.00
45275;BME280;31019;43.780;25.948;2023-08-12T08:58:22;101554.22;;;27.95;100.00
45275;BME280;31019;43.780;25.948;2023-08-12T09:00:49;101552.66;;;27.28;100.00
45275;BME280;31019;43.780;25.948;2023-08-12T09:03:17;101544.97;;;28.32;100.00
45275;BME280;31019;43.780;25.948;2023-08-12T09:05:45;101543.91;;;28.19;100.00
45275;BME280;31019;43.780;25.948;2023-08-12T09:08:13;101541.22;;;28.92;100.00
45275;BME280;31019;43.780;25.948;2023-08-12T09:10:42;101545.69;;;28.88;100.00
45275;BME280;31019;43.780;25.948;2023-08-12T09:13:09;101538.75;;;28.45;100.00
45275;BME280;31019;43.780;25.948;2023-08-12T09:15:36;101535.88;;;28.37;100.00
45275;BME280;31019;43.780;25.948;2023-08-12T09:18:05;101550.59;;;27.99;100.00
45275;BME280;31019;43.780;25.948;2023-08-12T09:20:32;101532.63;;;27.66;100.00
45275;BME280;31019;43.780;25.948;2023-08-12T09:23:01;101523.19;;;27.91;100.00
45275;BME280;31019;43.780;25.948;2023-08-12T09:25:28;101530.94;;;28.25;100.00
45275;BME280;31019;43.780;25.948;2023-08-12T09:27:55;101525.69;;;28.79;100.00
45275;BME280;31019;43.780;25.948;2023-08-12T09:30:28;101531.41;;;29.13;100.00
45275;BME280;31019;43.780;25.948;2023-08-12T09:32:59;101519.25;;;28.61;100.00
45275;BME280;31019;43.780;25.948;2023-08-12T09:35:32;101522.97;;;29.24;100.00
45275;BME280;31019;43.780;25.948;2023-08-12T09:38:01;101520.06;;;29.51;100.00
45275;BME280;31019;43.780;25.948;2023-08-12T09:40:29;101520.94;;;29.38;100.00
45275;BME280;31019;43.780;25.948;2023-08-12T09:42:56;101511.03;;;28.24;100.00
45275;BME280;31019;43.780;25.948;2023-08-12T09:45:23;101511.56;;;27.85;100.00
45275;BME280;31019;43.780;25.948;2023-08-12T09:47:50;101516.44;;;28.66;100.00
45275;BME280;31019;43.780;25.948;2023-08-12T09:50:17;101509.06;;;29.11;100.00
45275;BME280;31019;43.780;25.948;2023-08-12T09:52:44;101501.78;;;29.38;100.00
45275;BME280;31019;43.780;25.948;2023-08-12T09:55:15;101498.13;;;29.42;100.00
45275;BME280;31019;43.780;25.948;2023-08-12T09:57:47;101493.78;;;29.41;100.00
45275;BME280;31019;43.780;25.948;2023-08-12T10:00:15;101493.22;;;29.31;100.00
45275;BME280;31019;43.780;25.948;2023-08-12T10:02:45;101487.22;;;29.51;100.00
45275;BME280;31019;43.780;25.948;2023-08-12T10:05:15;101482.22;;;29.53;100.00
45275;BME280;31019;43.780;25.948;2023-08-12T10:07:43;101480.31;;;29.54;100.00
45275;BME280;31019;43.780;25.948;2023-08-12T10:10:14;101478.28;;;30.34;100.00
45275;BME280;31019;43.780;25.948;2023-08-12T10:12:41;101480.75;;;29.47;100.00
45275;BME280;31019;43.780;25.948;2023-08-12T10:15:09;101476.09;;;29.87;100.00
45275;BME280;31019;43.780;25.948;2023-08-12T10:17:36;101469.81;;;29.47;100.00
45275;BME280;31019;43.780;25.948;2023-08-12T10:20:04;101474.75;;;29.67;100.00
45275;BME280;31019;43.780;25.948;2023-08-12T10:22:34;101463.47;;;30.61;100.00
45275;BME280;31019;43.780;25.948;2023-08-12T10:25:02;101461.06;;;30.51;94.49
45275;BME280;31019;43.780;25.948;2023-08-12T10:27:31;101450.63;;;29.70;100.00
45275;BME280;31019;43.780;25.948;2023-08-12T10:29:58;101458.31;;;30.51;94.20
45275;BME280;31019;43.780;25.948;2023-08-12T10:32:25;101456.88;;;30.45;92.09
45275;BME280;31019;43.780;25.948;2023-08-12T10:34:55;101452.31;;;30.92;99.28
45275;BME280;31019;43.780;25.948;2023-08-12T10:37:24;101448.31;;;30.55;99.69
45275;BME280;31019;43.780;25.948;2023-08-12T10:39:52;101453.47;;;30.22;91.66
45275;BME280;31019;43.780;25.948;2023-08-12T10:42:41;101441.19;;;31.44;90.38
45275;BME280;31019;43.780;25.948;2023-08-12T10:45:09;101444.19;;;31.60;81.17
45275;BME280;31019;43.780;25.948;2023-08-12T10:47:40;101441.13;;;32.12;75.10
45275;BME280;31019;43.780;25.948;2023-08-12T10:50:17;101437.16;;;30.86;91.55
45275;BME280;31019;43.780;25.948;2023-08-12T10:52:47;101436.56;;;31.27;91.75
45275;BME280;31019;43.780;25.948;2023-08-12T10:55:21;101434.34;;;32.31;71.44
45275;BME280;31019;43.780;25.948;2023-08-12T10:57:51;101431.88;;;31.28;81.40
45275;BME280;31019;43.780;25.948;2023-08-12T11:00:19;101424.91;;;31.69;86.49
45275;BME280;31019;43.780;25.948;2023-08-12T11:02:52;101424.63;;;32.33;75.14
45275;BME280;31019;43.780;25.948;2023-08-12T11:05:19;101423.06;;;31.82;71.33
45275;BME280;31019;43.780;25.948;2023-08-12T11:07:48;101419.16;;;31.83;74.28
45275;BME280;31019;43.780;25.948;2023-08-12T11:10:17;101426.16;;;29.82;100.00
45275;BME280;31019;43.780;25.948;2023-08-12T11:12:54;101415.63;;;31.14;81.66
45275;BME280;31019;43.780;25.948;2023-08-12T11:15:30;101413.63;;;29.81;92.47
45275;BME280;31019;43.780;25.948;2023-08-12T11:17:58;101421.63;;;29.29;100.00
45275;BME280;31019;43.780;25.948;2023-08-12T11:20:27;101422.69;;;29.19;100.00
45275;BME280;31019;43.780;25.948;2023-08-12T11:22:55;101415.41;;;29.45;100.00
45275;BME280;31019;43.780;25.948;2023-08-12T11:25:23;101419.66;;;31.17;89.10
45275;BME280;31019;43.780;25.948;2023-08-12T11:27:52;101406.69;;;30.70;87.87
45275;BME280;31019;43.780;25.948;2023-08-12T11:30:20;101407.50;;;31.35;94.56
45275;BME280;31019;43.780;25.948;2023-08-12T11:32:49;101403.72;;;31.48;83.17
45275;BME280;31019;43.780;25.948;2023-08-12T11:35:17;101397.78;;;31.67;71.64
45275;BME280;31019;43.780;25.948;2023-08-12T11:37:45;101402.06;;;31.56;83.39
45275;BME280;31019;43.780;25.948;2023-08-12T11:40:14;101402.28;;;30.95;80.15
45275;BME280;31019;43.780;25.948;2023-08-12T11:42:42;101406.31;;;30.98;86.96
45275;BME280;31019;43.780;25.948;2023-08-12T11:45:11;101401.72;;;30.38;97.36
45275;BME280;31019;43.780;25.948;2023-08-12T11:47:39;101394.81;;;29.48;100.00
45275;BME280;31019;43.780;25.948;2023-08-12T11:50:08;101397.19;;;30.16;99.33
45275;BME280;31019;43.780;25.948;2023-08-12T11:52:35;101390.91;;;30.15;91.83
45275;BME280;31019;43.780;25.948;2023-08-12T11:55:04;101405.13;;;30.34;92.73
45275;BME280;31019;43.780;25.948;2023-08-12T11:57:32;101395.84;;;30.91;86.91
45275;BME280;31019;43.780;25.948;2023-08-12T12:00:00;101390.88;;;32.12;79.09
45275;BME280;31019;43.780;25.948;2023-08-12T12:02:29;101373.50;;;31.10;84.09
45275;BME280;31019;43.780;25.948;2023-08-12T12:04:56;101387.09;;;31.75;78.70
45275;BME280;31019;43.780;25.948;2023-08-12T12:07:24;101371.78;;;31.65;82.99
45275;BME280;31019;43.780;25.948;2023-08-12T12:09:53;101368.66;;;32.38;79.37
45275;BME280;31019;43.780;25.948;2023-08-12T12:12:24;101382.28;;;31.71;80.89
45275;BME280;31019;43.780;25.948;2023-08-12T12:14:51;101374.41;;;30.76;86.28
45275;BME280;31019;43.780;25.948;2023-08-12T12:17:20;101375.38;;;31.65;83.85
45275;BME280;31019;43.780;25.948;2023-08-12T12:19:52;101375.19;;;31.91;74.98
45275;BME280;31019;43.780;25.948;2023-08-12T12:22:19;101350.53;;;32.04;61.09
45275;BME280;31019;43.780;25.948;2023-08-12T12:24:46;101364.53;;;31.31;71.00
45275;BME280;31019;43.780;25.948;2023-08-12T12:27:13;101361.00;;;32.89;65.43
45275;BME280;31019;43.780;25.948;2023-08-12T12:29:40;101358.75;;;32.46;74.20
45275;BME280;31019;43.780;25.948;2023-08-12T12:32:07;101354.88;;;33.29;61.39
45275;BME280;31019;43.780;25.948;2023-08-12T12:34:34;101359.00;;;32.98;57.59